KFCM/FCM METAR and TAF weather

Enter ICAO airport designator
Station Type Date Time Source
KFCM METAR 2022/11/27 07:53 UTC NOAA

KFCM 270753Z AUTO 35006KT 10SM CLR 03/M02 A2977 RMK AO2 SLP084 T00281017


Station Type Date Time Source
KFCM Decoded METAR 2022/11/27 07:53 UTC NOAA

Minneapolis, Flying Cloud Airport, MN, United States (KFCM) 44-49-56N 093-28-13W 280M
Nov 27, 2022 - 02:53 AM EST / 2022.11.27 0753 UTC
Wind: from the N (350 degrees) at 7 MPH (6 KT):0
Visibility: 10 mile(s):0
Sky conditions: clear
Temperature: 37.0 F (2.8 C)
Dew Point: 28.9 F (-1.7 C)
Relative Humidity: 72%
Pressure (altimeter): 29.77 in. Hg (1008 hPa)
ob: KFCM 270753Z AUTO 35006KT 10SM CLR 03/M02 A2977 RMK AO2 SLP084 T00281017
cycle: 8

Station Type Date Time Source
KFCM TAF 2018/02/05 20:59 UTC NOAA

TAF
AMD KFCM 051959Z 0520/0618 27007KT 6SM -SHSN BKN020 OVC050
TEMPO 0520/0522 SCT020 BKN050
FM052200 27007KT P6SM FEW020 BKN100
FM060100 31007KT P6SM FEW200
FM061000 VRB03KT P6SM FEW250
AMD NOT SKED

Example: see airport list